Terminal Aerodrome Forecast
Issued by NWS

Home | Current Version | Previous Version | Text Only | Print | Product List | Glossary On
Versions: 1 2 3 4 5 6 7 8 9 10 11 12 13 14 15 16 17 18 19 20
000
FTUS43 KSGF 231758 CCA
TAFJLN
TAF COR
KJLN 231758Z 2318/2418 19012G20KT P6SM VCSH SCT070 BKN200
     FM232300 16012KT P6SM VCSH BKN070 BKN110
     FM240300 16010KT P6SM VCTS BKN050CB BKN120 WS020/20040KT
     FM241100 18008KT P6SM VCTS BKN020CB BKN050
     FM241400 19010KT P6SM VCSH BKN008=

USA.gov is the U.S. government's official web portal to all federal, state and local government web resources and services.